YVR weather

Vancouver International Airport
Vancouver, British Columbia, Canada

Public forecast

Using degrees Celsius for public forecast. Weather courtesy of forecast.io.

METAR (pilot weather report)

Retrieved 2017/10/19 11:19 UTC (33 minutes ago):

CYVR 191119Z 13011KT 15SM SCT049 BKN100 BKN250 11/10 A2951 RMK SC4AC1CI1 SLP994

TAF (pilot weather forecast)

Forecast is more than 6 hours old.

Retrieved 2017/10/19 03:39 UTC (8 hours ago):

TAF CYVR 190238Z 1903/2006 13010KT P6SM FEW015 FEW040 BKN120 TEMPO 1904/1912 5SM -SHRA BR SCT008 BKN015 OVC040 FM191200 14012KT P6SM SCT020 BKN050 TEMPO 1912/1924 P6SM -SHRA BKN020 OVC050 BECMG 1917/1919 14012G25KT FM200000 20010KT P6SM FEW020 SCT040 BKN120 FM200500 09010KT P6SM -RA SCT020 BKN040 OVC120 RMK NXT FCST BY 190600Z